sensor_id;sensor_type;location;lat;lon;timestamp;pressure;altitude;pressure_sealevel;temperature;humidity
6096;BME280;25081;42.698;23.298;2023-03-20T00:01:58;95606.33;;;5.01;72.23
6096;BME280;25081;42.698;23.298;2023-03-20T00:04:09;95604.72;;;4.96;72.04
6096;BME280;25081;42.698;23.298;2023-03-20T00:06:20;95614.52;;;4.87;72.57
6096;BME280;25081;42.698;23.298;2023-03-20T00:08:31;95598.62;;;4.92;72.43
6096;BME280;25081;42.698;23.298;2023-03-20T00:10:42;95603.81;;;4.85;72.60
6096;BME280;25081;42.698;23.298;2023-03-20T00:12:51;95604.84;;;4.76;72.92
6096;BME280;25081;42.698;23.298;2023-03-20T00:15:04;95601.06;;;4.74;72.87
6096;BME280;25081;42.698;23.298;2023-03-20T00:17:14;95599.89;;;4.77;73.23
6096;BME280;25081;42.698;23.298;2023-03-20T00:19:24;95594.74;;;4.83;73.38
6096;BME280;25081;42.698;23.298;2023-03-20T00:21:35;95586.28;;;4.88;72.56
6096;BME280;25081;42.698;23.298;2023-03-20T00:23:45;95597.02;;;4.86;72.96
6096;BME280;25081;42.698;23.298;2023-03-20T00:28:34;95587.32;;;4.83;72.77
6096;BME280;25081;42.698;23.298;2023-03-20T00:30:44;95590.60;;;4.85;72.62
6096;BME280;25081;42.698;23.298;2023-03-20T00:32:55;95588.28;;;4.86;72.31
6096;BME280;25081;42.698;23.298;2023-03-20T00:35:15;95589.46;;;4.83;72.44
6096;BME280;25081;42.698;23.298;2023-03-20T00:37:26;95584.22;;;4.75;72.77
6096;BME280;25081;42.698;23.298;2023-03-20T00:39:36;95589.37;;;4.69;73.36
6096;BME280;25081;42.698;23.298;2023-03-20T00:41:48;95589.72;;;4.66;73.68
6096;BME280;25081;42.698;23.298;2023-03-20T00:43:59;95589.55;;;4.67;73.41
6096;BME280;25081;42.698;23.298;2023-03-20T00:46:10;95587.59;;;4.61;73.50
6096;BME280;25081;42.698;23.298;2023-03-20T00:48:20;95591.05;;;4.66;73.36
6096;BME280;25081;42.698;23.298;2023-03-20T00:50:31;95585.12;;;4.64;72.92
6096;BME280;25081;42.698;23.298;2023-03-20T00:52:41;95582.63;;;4.62;72.98
6096;BME280;25081;42.698;23.298;2023-03-20T00:54:52;95586.77;;;4.65;72.99
6096;BME280;25081;42.698;23.298;2023-03-20T00:57:04;95586.59;;;4.62;73.00
6096;BME280;25081;42.698;23.298;2023-03-20T00:59:15;95587.63;;;4.53;73.21
6096;BME280;25081;42.698;23.298;2023-03-20T01:01:25;95586.02;;;4.48;73.56
6096;BME280;25081;42.698;23.298;2023-03-20T01:03:35;95576.95;;;4.46;73.49
6096;BME280;25081;42.698;23.298;2023-03-20T01:05:46;95574.64;;;4.43;73.72
6096;BME280;25081;42.698;23.298;2023-03-20T01:07:57;95568.86;;;4.44;73.94
6096;BME280;25081;42.698;23.298;2023-03-20T01:10:10;95575.53;;;4.36;74.35
6096;BME280;25081;42.698;23.298;2023-03-20T01:12:20;95574.70;;;4.35;74.77
6096;BME280;25081;42.698;23.298;2023-03-20T01:14:31;95569.42;;;4.35;74.57
6096;BME280;25081;42.698;23.298;2023-03-20T01:16:41;95566.78;;;4.35;74.48
6096;BME280;25081;42.698;23.298;2023-03-20T01:18:52;95570.07;;;4.37;74.25
6096;BME280;25081;42.698;23.298;2023-03-20T01:21:02;95563.33;;;4.35;74.42
6096;BME280;25081;42.698;23.298;2023-03-20T01:23:13;95557.05;;;4.31;74.57
6096;BME280;25081;42.698;23.298;2023-03-20T01:25:24;95563.33;;;4.35;74.36
6096;BME280;25081;42.698;23.298;2023-03-20T01:27:35;95558.20;;;4.37;74.07
6096;BME280;25081;42.698;23.298;2023-03-20T01:29:45;95563.12;;;4.40;73.86
6096;BME280;25081;42.698;23.298;2023-03-20T01:31:56;95559.69;;;4.36;73.64
6096;BME280;25081;42.698;23.298;2023-03-20T01:34:07;95562.69;;;4.28;74.16
6096;BME280;25081;42.698;23.298;2023-03-20T01:36:19;95566.44;;;4.34;74.21
6096;BME280;25081;42.698;23.298;2023-03-20T01:38:29;95566.28;;;4.36;73.47
6096;BME280;25081;42.698;23.298;2023-03-20T01:40:46;95568.92;;;4.36;73.73
6096;BME280;25081;42.698;23.298;2023-03-20T01:42:56;95567.28;;;4.30;73.80
6096;BME280;25081;42.698;23.298;2023-03-20T01:45:14;95569.81;;;4.20;74.63
6096;BME280;25081;42.698;23.298;2023-03-20T01:47:25;95574.12;;;4.17;74.91
6096;BME280;25081;42.698;23.298;2023-03-20T01:52:21;95577.43;;;4.11;75.39
6096;BME280;25081;42.698;23.298;2023-03-20T01:54:32;95576.91;;;4.19;75.26
6096;BME280;25081;42.698;23.298;2023-03-20T01:56:43;95574.44;;;4.18;74.83
6096;BME280;25081;42.698;23.298;2023-03-20T01:58:55;95572.48;;;4.16;74.81
6096;BME280;25081;42.698;23.298;2023-03-20T02:01:04;95576.94;;;4.15;74.64
6096;BME280;25081;42.698;23.298;2023-03-20T02:03:15;95572.18;;;4.07;75.18
6096;BME280;25081;42.698;23.298;2023-03-20T02:05:25;95575.34;;;3.98;75.58
6096;BME280;25081;42.698;23.298;2023-03-20T02:07:36;95573.20;;;3.97;75.89
6096;BME280;25081;42.698;23.298;2023-03-20T02:09:48;95567.09;;;3.93;75.75
6096;BME280;25081;42.698;23.298;2023-03-20T02:11:58;95567.80;;;3.87;76.23
6096;BME280;25081;42.698;23.298;2023-03-20T02:14:09;95566.30;;;3.88;76.12
6096;BME280;25081;42.698;23.298;2023-03-20T02:16:19;95562.34;;;3.84;75.97
6096;BME280;25081;42.698;23.298;2023-03-20T02:18:30;95569.11;;;3.83;76.15
6096;BME280;25081;42.698;23.298;2023-03-20T02:20:47;95563.86;;;3.79;76.55
6096;BME280;25081;42.698;23.298;2023-03-20T02:35:04;95579.54;;;3.68;76.24
6096;BME280;25081;42.698;23.298;2023-03-20T02:40:09;95579.72;;;3.58;76.60
6096;BME280;25081;42.698;23.298;2023-03-20T02:42:21;95574.59;;;3.57;77.30
6096;BME280;25081;42.698;23.298;2023-03-20T02:44:33;95563.77;;;3.48;77.45
6096;BME280;25081;42.698;23.298;2023-03-20T02:46:45;95565.21;;;3.54;77.59
6096;BME280;25081;42.698;23.298;2023-03-20T02:48:56;95566.03;;;3.67;77.22
6096;BME280;25081;42.698;23.298;2023-03-20T02:51:08;95561.09;;;3.68;76.88
6096;BME280;25081;42.698;23.298;2023-03-20T02:53:26;95560.75;;;3.63;76.68
6096;BME280;25081;42.698;23.298;2023-03-20T02:55:37;95554.99;;;3.55;76.72
6096;BME280;25081;42.698;23.298;2023-03-20T02:57:53;95565.86;;;3.56;77.14
6096;BME280;25081;42.698;23.298;2023-03-20T03:00:05;95559.13;;;3.54;77.12
6096;BME280;25081;42.698;23.298;2023-03-20T03:02:14;95563.74;;;3.52;76.92
6096;BME280;25081;42.698;23.298;2023-03-20T03:04:25;95556.98;;;3.53;76.83
6096;BME280;25081;42.698;23.298;2023-03-20T03:06:36;95562.58;;;3.54;76.81
6096;BME280;25081;42.698;23.298;2023-03-20T03:08:48;95561.75;;;3.54;76.80
6096;BME280;25081;42.698;23.298;2023-03-20T03:10:58;95561.11;;;3.52;76.99
6096;BME280;25081;42.698;23.298;2023-03-20T03:13:10;95562.27;;;3.45;77.50
6096;BME280;25081;42.698;23.298;2023-03-20T03:15:21;95558.97;;;3.51;77.48
6096;BME280;25081;42.698;23.298;2023-03-20T03:17:31;95555.52;;;3.51;77.40
6096;BME280;25081;42.698;23.298;2023-03-20T03:19:43;95557.65;;;3.51;77.18
6096;BME280;25081;42.698;23.298;2023-03-20T03:21:52;95550.89;;;3.53;77.18
6096;BME280;25081;42.698;23.298;2023-03-20T03:24:03;95560.77;;;3.55;77.33
6096;BME280;25081;42.698;23.298;2023-03-20T03:26:16;95556.31;;;3.55;77.22
6096;BME280;25081;42.698;23.298;2023-03-20T03:28:26;95561.92;;;3.52;76.96
6096;BME280;25081;42.698;23.298;2023-03-20T03:30:37;95560.27;;;3.47;77.33
6096;BME280;25081;42.698;23.298;2023-03-20T03:32:48;95557.33;;;3.42;77.53
6096;BME280;25081;42.698;23.298;2023-03-20T03:34:59;95556.86;;;3.30;78.05
6096;BME280;25081;42.698;23.298;2023-03-20T03:37:10;95559.48;;;3.34;77.82
6096;BME280;25081;42.698;23.298;2023-03-20T03:39:23;95562.11;;;3.34;77.81
6096;BME280;25081;42.698;23.298;2023-03-20T03:41:34;95563.11;;;3.33;77.73
6096;BME280;25081;42.698;23.298;2023-03-20T03:43:45;95562.28;;;3.33;77.76
6096;BME280;25081;42.698;23.298;2023-03-20T03:45:55;95556.19;;;3.32;77.91
6096;BME280;25081;42.698;23.298;2023-03-20T03:48:07;95555.54;;;3.30;77.63
6096;BME280;25081;42.698;23.298;2023-03-20T03:50:19;95553.90;;;3.29;77.81
6096;BME280;25081;42.698;23.298;2023-03-20T03:52:28;95553.72;;;3.27;77.95
6096;BME280;25081;42.698;23.298;2023-03-20T03:54:40;95548.45;;;3.27;77.95
6096;BME280;25081;42.698;23.298;2023-03-20T03:56:50;95550.58;;;3.27;77.91
6096;BME280;25081;42.698;23.298;2023-03-20T03:59:01;95546.98;;;3.28;77.95
6096;BME280;25081;42.698;23.298;2023-03-20T04:01:12;95548.45;;;3.31;77.82
6096;BME280;25081;42.698;23.298;2023-03-20T04:03:23;95544.52;;;3.23;78.32
6096;BME280;25081;42.698;23.298;2023-03-20T04:05:33;95546.66;;;3.19;78.67
6096;BME280;25081;42.698;23.298;2023-03-20T04:07:45;95551.25;;;3.17;78.59
6096;BME280;25081;42.698;23.298;2023-03-20T04:09:55;95552.43;;;3.19;78.46
6096;BME280;25081;42.698;23.298;2023-03-20T04:12:08;95549.61;;;3.24;78.09
6096;BME280;25081;42.698;23.298;2023-03-20T04:14:18;95546.33;;;3.22;78.11
6096;BME280;25081;42.698;23.298;2023-03-20T04:16:29;95539.41;;;3.21;78.56
6096;BME280;25081;42.698;23.298;2023-03-20T04:18:39;95538.25;;;3.24;78.78
6096;BME280;25081;42.698;23.298;2023-03-20T04:20:50;95540.05;;;3.27;78.44
6096;BME280;25081;42.698;23.298;2023-03-20T04:23:01;95536.28;;;3.30;78.14
6096;BME280;25081;42.698;23.298;2023-03-20T04:25:16;95533.97;;;3.31;78.23
6096;BME280;25081;42.698;23.298;2023-03-20T04:27:25;95527.55;;;3.29;78.08
6096;BME280;25081;42.698;23.298;2023-03-20T04:29:36;95532.31;;;3.26;78.28
6096;BME280;25081;42.698;23.298;2023-03-20T04:31:46;95538.09;;;3.29;78.47
6096;BME280;25081;42.698;23.298;2023-03-20T04:33:57;95536.09;;;3.35;78.10
6096;BME280;25081;42.698;23.298;2023-03-20T04:36:10;95542.84;;;3.34;77.90
6096;BME280;25081;42.698;23.298;2023-03-20T04:38:21;95542.67;;;3.35;77.94
6096;BME280;25081;42.698;23.298;2023-03-20T04:40:32;95540.55;;;3.39;77.71
6096;BME280;25081;42.698;23.298;2023-03-20T04:42:42;95544.66;;;3.41;77.85
6096;BME280;25081;42.698;23.298;2023-03-20T04:44:53;95554.38;;;3.41;77.79
6096;BME280;25081;42.698;23.298;2023-03-20T04:47:04;95557.64;;;3.47;77.55
6096;BME280;25081;42.698;23.298;2023-03-20T04:49:14;95562.44;;;3.48;77.35
6096;BME280;25081;42.698;23.298;2023-03-20T04:51:25;95559.95;;;3.58;77.19
6096;BME280;25081;42.698;23.298;2023-03-20T04:53:35;95569.31;;;3.65;77.25
6096;BME280;25081;42.698;23.298;2023-03-20T04:55:46;95573.90;;;3.75;76.92
6096;BME280;25081;42.698;23.298;2023-03-20T04:57:57;95578.02;;;3.82;76.51
6096;BME280;25081;42.698;23.298;2023-03-20T05:00:10;95573.86;;;3.91;76.10
6096;BME280;25081;42.698;23.298;2023-03-20T05:02:21;95579.81;;;3.89;76.16
6096;BME280;25081;42.698;23.298;2023-03-20T05:04:31;95577.67;;;3.89;76.08
6096;BME280;25081;42.698;23.298;2023-03-20T05:06:42;95574.61;;;4.12;76.06
6096;BME280;25081;42.698;23.298;2023-03-20T05:08:52;95573.95;;;4.49;74.54
6096;BME280;25081;42.698;23.298;2023-03-20T05:11:03;95570.10;;;4.60;73.44
6096;BME280;25081;42.698;23.298;2023-03-20T05:13:14;95566.70;;;4.78;72.72
6096;BME280;25081;42.698;23.298;2023-03-20T05:15:24;95568.55;;;4.97;72.46
6096;BME280;25081;42.698;23.298;2023-03-20T05:17:35;95578.52;;;5.13;71.43
6096;BME280;25081;42.698;23.298;2023-03-20T05:19:46;95584.16;;;5.48;70.82
6096;BME280;25081;42.698;23.298;2023-03-20T05:21:56;95576.20;;;5.86;69.44
6096;BME280;25081;42.698;23.298;2023-03-20T05:24:08;95580.73;;;6.00;68.75
6096;BME280;25081;42.698;23.298;2023-03-20T05:26:18;95580.85;;;6.32;67.70
6096;BME280;25081;42.698;23.298;2023-03-20T05:28:29;95575.07;;;6.58;66.98
6096;BME280;25081;42.698;23.298;2023-03-20T05:30:40;95567.18;;;6.65;66.19
6096;BME280;25081;42.698;23.298;2023-03-20T05:32:50;95568.91;;;6.21;66.58
6096;BME280;25081;42.698;23.298;2023-03-20T05:35:01;95572.56;;;5.91;67.69
6096;BME280;25081;42.698;23.298;2023-03-20T05:37:11;95577.10;;;5.78;68.07
6096;BME280;25081;42.698;23.298;2023-03-20T05:39:22;95580.37;;;5.46;69.00
6096;BME280;25081;42.698;23.298;2023-03-20T05:41:32;95583.66;;;5.30;69.99
6096;BME280;25081;42.698;23.298;2023-03-20T05:43:43;95585.41;;;5.37;70.16
6096;BME280;25081;42.698;23.298;2023-03-20T05:45:54;95589.13;;;5.47;70.13
6096;BME280;25081;42.698;23.298;2023-03-20T05:48:05;95587.80;;;5.66;69.59
6096;BME280;25081;42.698;23.298;2023-03-20T05:50:16;95585.20;;;5.81;69.08
6096;BME280;25081;42.698;23.298;2023-03-20T05:52:26;95577.58;;;6.00;68.32
6096;BME280;25081;42.698;23.298;2023-03-20T05:54:37;95575.75;;;6.01;67.99
6096;BME280;25081;42.698;23.298;2023-03-20T05:56:47;95585.09;;;5.74;68.59
6096;BME280;25081;42.698;23.298;2023-03-20T05:58:58;95587.05;;;5.76;68.52
6096;BME280;25081;42.698;23.298;2023-03-20T06:01:08;95587.69;;;5.97;68.20
6096;BME280;25081;42.698;23.298;2023-03-20T06:03:19;95586.59;;;6.36;67.23
6096;BME280;25081;42.698;23.298;2023-03-20T06:05:29;95581.77;;;6.75;65.89
6096;BME280;25081;42.698;23.298;2023-03-20T06:07:40;95584.79;;;7.08;64.56
6096;BME280;25081;42.698;23.298;2023-03-20T06:09:50;95581.08;;;7.35;63.67
6096;BME280;25081;42.698;23.298;2023-03-20T06:12:01;95575.35;;;7.59;62.70
6096;BME280;25081;42.698;23.298;2023-03-20T06:14:11;95581.34;;;7.68;61.73
6096;BME280;25081;42.698;23.298;2023-03-20T06:16:22;95585.58;;;7.73;62.06
6096;BME280;25081;42.698;23.298;2023-03-20T06:18:32;95586.69;;;7.85;61.27
6096;BME280;25081;42.698;23.298;2023-03-20T06:20:43;95587.25;;;7.91;61.20
6096;BME280;25081;42.698;23.298;2023-03-20T06:22:53;95583.13;;;7.89;60.94
6096;BME280;25081;42.698;23.298;2023-03-20T06:25:05;95572.72;;;8.04;60.58
6096;BME280;25081;42.698;23.298;2023-03-20T06:27:15;95574.25;;;8.03;60.53
6096;BME280;25081;42.698;23.298;2023-03-20T06:29:26;95576.20;;;8.05;60.63
6096;BME280;25081;42.698;23.298;2023-03-20T06:31:36;95573.77;;;8.10;60.74
6096;BME280;25081;42.698;23.298;2023-03-20T06:33:47;95578.61;;;8.17;60.61
6096;BME280;25081;42.698;23.298;2023-03-20T06:35:57;95582.78;;;8.44;59.92
6096;BME280;25081;42.698;23.298;2023-03-20T06:38:08;95586.00;;;8.56;59.28
6096;BME280;25081;42.698;23.298;2023-03-20T06:40:19;95584.44;;;8.69;59.28
6096;BME280;25081;42.698;23.298;2023-03-20T06:42:30;95581.39;;;8.54;59.50
6096;BME280;25081;42.698;23.298;2023-03-20T06:44:40;95585.60;;;8.83;58.42
6096;BME280;25081;42.698;23.298;2023-03-20T06:46:51;95580.27;;;9.07;57.55
6096;BME280;25081;42.698;23.298;2023-03-20T06:49:01;95580.27;;;9.07;57.15
6096;BME280;25081;42.698;23.298;2023-03-20T06:51:12;95576.81;;;9.20;56.82
6096;BME280;25081;42.698;23.298;2023-03-20T06:53:23;95574.99;;;9.54;56.35
6096;BME280;25081;42.698;23.298;2023-03-20T06:55:33;95482.38;;;9.46;55.66
6096;BME280;25081;42.698;23.298;2023-03-20T06:57:44;95563.61;;;10.57;53.89
6096;BME280;25081;42.698;23.298;2023-03-20T06:59:54;95566.16;;;11.54;51.47
6096;BME280;25081;42.698;23.298;2023-03-20T07:02:05;95568.11;;;12.40;48.95
6096;BME280;25081;42.698;23.298;2023-03-20T07:04:15;95563.14;;;13.10;47.80
6096;BME280;25081;42.698;23.298;2023-03-20T07:06:26;95565.65;;;13.74;45.38
6096;BME280;25081;42.698;23.298;2023-03-20T07:08:37;95559.34;;;13.27;45.18
6096;BME280;25081;42.698;23.298;2023-03-20T07:10:47;95558.98;;;12.47;46.66
6096;BME280;25081;42.698;23.298;2023-03-20T07:12:58;95563.80;;;12.48;47.90
6096;BME280;25081;42.698;23.298;2023-03-20T07:15:10;95548.09;;;13.36;45.96
6096;BME280;25081;42.698;23.298;2023-03-20T07:17:20;95549.89;;;14.22;44.10
6096;BME280;25081;42.698;23.298;2023-03-20T07:19:31;95543.52;;;14.37;42.58
6096;BME280;25081;42.698;23.298;2023-03-20T07:21:42;95547.66;;;14.07;43.83
6096;BME280;25081;42.698;23.298;2023-03-20T07:23:52;95544.84;;;14.72;42.01
6096;BME280;25081;42.698;23.298;2023-03-20T07:26:03;95542.34;;;15.37;41.38
6096;BME280;25081;42.698;23.298;2023-03-20T07:28:14;95531.00;;;16.91;37.41
6096;BME280;25081;42.698;23.298;2023-03-20T07:30:25;95526.95;;;16.91;37.41
6096;BME280;25081;42.698;23.298;2023-03-20T07:32:43;95537.52;;;16.98;37.11
6096;BME280;25081;42.698;23.298;2023-03-20T07:34:55;95540.49;;;17.21;36.43
6096;BME280;25081;42.698;23.298;2023-03-20T07:37:06;95541.50;;;14.94;40.16
6096;BME280;25081;42.698;23.298;2023-03-20T07:39:16;95541.50;;;14.94;40.16
6096;BME280;25081;42.698;23.298;2023-03-20T07:41:27;95548.36;;;16.06;38.91
6096;BME280;25081;42.698;23.298;2023-03-20T07:43:37;95547.86;;;16.65;37.70
6096;BME280;25081;42.698;23.298;2023-03-20T07:45:48;95548.27;;;16.18;38.16
6096;BME280;25081;42.698;23.298;2023-03-20T07:47:58;95533.84;;;17.21;36.93
6096;BME280;25081;42.698;23.298;2023-03-20T07:50:10;95548.79;;;16.53;37.52
6096;BME280;25081;42.698;23.298;2023-03-20T07:52:21;95543.42;;;18.37;34.84
6096;BME280;25081;42.698;23.298;2023-03-20T07:54:31;95543.42;;;18.37;34.84
6096;BME280;25081;42.698;23.298;2023-03-20T07:56:42;95535.73;;;19.19;32.94
6096;BME280;25081;42.698;23.298;2023-03-20T07:58:52;95534.63;;;18.57;33.48
6096;BME280;25081;42.698;23.298;2023-03-20T08:01:03;95533.78;;;18.51;34.34
6096;BME280;25081;42.698;23.298;2023-03-20T08:03:14;95533.27;;;19.04;32.61
6096;BME280;25081;42.698;23.298;2023-03-20T08:05:25;95520.87;;;19.13;32.80
6096;BME280;25081;42.698;23.298;2023-03-20T08:07:35;95535.59;;;19.58;32.03
6096;BME280;25081;42.698;23.298;2023-03-20T08:09:46;95536.41;;;20.61;30.94
6096;BME280;25081;42.698;23.298;2023-03-20T08:11:56;95533.30;;;21.05;29.61
6096;BME280;25081;42.698;23.298;2023-03-20T08:14:07;95526.54;;;20.98;29.62
6096;BME280;25081;42.698;23.298;2023-03-20T08:16:17;95525.73;;;21.52;29.17
6096;BME280;25081;42.698;23.298;2023-03-20T08:18:28;95522.59;;;21.32;29.38
6096;BME280;25081;42.698;23.298;2023-03-20T08:20:38;95525.09;;;22.09;28.82
6096;BME280;25081;42.698;23.298;2023-03-20T08:22:49;95527.54;;;22.06;27.80
6096;BME280;25081;42.698;23.298;2023-03-20T08:25:00;95533.52;;;21.11;29.97
6096;BME280;25081;42.698;23.298;2023-03-20T08:27:10;95529.00;;;20.94;29.04
6096;BME280;25081;42.698;23.298;2023-03-20T08:29:21;95529.41;;;19.93;31.58
6096;BME280;25081;42.698;23.298;2023-03-20T08:31:31;95524.33;;;21.64;28.72
6096;BME280;25081;42.698;23.298;2023-03-20T08:33:42;95523.52;;;23.11;27.55
6096;BME280;25081;42.698;23.298;2023-03-20T08:35:58;95529.91;;;24.01;26.29
6096;BME280;25081;42.698;23.298;2023-03-20T08:38:10;95525.72;;;22.88;26.52
6096;BME280;25081;42.698;23.298;2023-03-20T08:40:20;95530.92;;;20.86;28.58
6096;BME280;25081;42.698;23.298;2023-03-20T08:42:31;95539.67;;;20.57;29.74
6096;BME280;25081;42.698;23.298;2023-03-20T08:44:41;95528.03;;;21.76;28.19
6096;BME280;25081;42.698;23.298;2023-03-20T08:46:52;95525.59;;;22.72;27.33
6096;BME280;25081;42.698;23.298;2023-03-20T08:49:02;95519.75;;;21.57;28.19
6096;BME280;25081;42.698;23.298;2023-03-20T08:51:13;95525.73;;;22.59;27.34
6096;BME280;25081;42.698;23.298;2023-03-20T08:53:24;95514.95;;;23.82;25.43
6096;BME280;25081;42.698;23.298;2023-03-20T08:55:34;95512.17;;;23.68;25.70
6096;BME280;25081;42.698;23.298;2023-03-20T08:57:46;95512.27;;;24.31;24.60
6096;BME280;25081;42.698;23.298;2023-03-20T08:59:56;95516.13;;;23.95;24.60
6096;BME280;25081;42.698;23.298;2023-03-20T09:02:08;95515.48;;;21.85;28.25
6096;BME280;25081;42.698;23.298;2023-03-20T09:04:18;95519.10;;;20.16;30.23
6096;BME280;25081;42.698;23.298;2023-03-20T09:06:29;95522.14;;;21.14;28.96
6096;BME280;25081;42.698;23.298;2023-03-20T09:08:39;95511.16;;;23.00;27.04
6096;BME280;25081;42.698;23.298;2023-03-20T09:10:50;95508.91;;;23.07;26.51
6096;BME280;25081;42.698;23.298;2023-03-20T09:15:25;95498.95;;;23.78;24.75
6096;BME280;25081;42.698;23.298;2023-03-20T09:17:35;95497.39;;;23.13;25.70
6096;BME280;25081;42.698;23.298;2023-03-20T09:19:46;95504.95;;;23.19;26.12
6096;BME280;25081;42.698;23.298;2023-03-20T09:21:56;95494.59;;;23.39;25.30
6096;BME280;25081;42.698;23.298;2023-03-20T09:24:08;95491.77;;;23.07;25.65
6096;BME280;25081;42.698;23.298;2023-03-20T09:26:18;95488.93;;;23.14;25.67
6096;BME280;25081;42.698;23.298;2023-03-20T09:28:29;95489.77;;;23.74;25.62
6096;BME280;25081;42.698;23.298;2023-03-20T09:30:39;95486.68;;;24.60;24.71
6096;BME280;25081;42.698;23.298;2023-03-20T09:32:50;95481.92;;;23.70;25.14
6096;BME280;25081;42.698;23.298;2023-03-20T09:35:00;95476.89;;;23.96;25.25
6096;BME280;25081;42.698;23.298;2023-03-20T09:37:11;95480.05;;;22.35;26.26
6096;BME280;25081;42.698;23.298;2023-03-20T09:39:22;95481.72;;;20.48;30.12
6096;BME280;25081;42.698;23.298;2023-03-20T09:41:32;95475.94;;;20.73;28.85
6096;BME280;25081;42.698;23.298;2023-03-20T09:43:54;95476.90;;;19.87;30.56
6096;BME280;25081;42.698;23.298;2023-03-20T09:46:09;95467.81;;;18.90;31.93
6096;BME280;25081;42.698;23.298;2023-03-20T09:48:21;95468.66;;;18.43;33.01
6096;BME280;25081;42.698;23.298;2023-03-20T09:50:30;95465.04;;;18.72;32.53
6096;BME280;25081;42.698;23.298;2023-03-20T09:52:42;95456.34;;;20.91;29.37
6096;BME280;25081;42.698;23.298;2023-03-20T09:54:53;95440.59;;;22.64;27.27
6096;BME280;25081;42.698;23.298;2023-03-20T09:57:03;95431.69;;;23.79;25.24
6096;BME280;25081;42.698;23.298;2023-03-20T09:59:13;95431.46;;;24.08;24.86
6096;BME280;25081;42.698;23.298;2023-03-20T10:01:25;95424.53;;;23.99;24.98
6096;BME280;25081;42.698;23.298;2023-03-20T10:03:38;95416.81;;;21.68;27.61
6096;BME280;25081;42.698;23.298;2023-03-20T10:05:50;95427.13;;;19.90;30.10
6096;BME280;25081;42.698;23.298;2023-03-20T10:08:00;95418.99;;;19.32;31.15
6096;BME280;25081;42.698;23.298;2023-03-20T10:10:13;95415.11;;;18.22;32.71
6096;BME280;25081;42.698;23.298;2023-03-20T10:12:29;95410.41;;;18.54;32.61
6096;BME280;25081;42.698;23.298;2023-03-20T10:14:43;95407.27;;;18.80;32.34
6096;BME280;25081;42.698;23.298;2023-03-20T10:17:02;95401.35;;;20.18;30.61
6096;BME280;25081;42.698;23.298;2023-03-20T10:19:16;95407.89;;;19.36;30.90
6096;BME280;25081;42.698;23.298;2023-03-20T10:21:29;95404.55;;;20.25;30.74
6096;BME280;25081;42.698;23.298;2023-03-20T10:23:39;95394.91;;;22.18;28.05
6096;BME280;25081;42.698;23.298;2023-03-20T10:25:49;95396.59;;;20.62;29.70
6096;BME280;25081;42.698;23.298;2023-03-20T10:28:00;95394.00;;;21.38;29.25
6096;BME280;25081;42.698;23.298;2023-03-20T10:30:22;95383.27;;;23.40;26.52
6096;BME280;25081;42.698;23.298;2023-03-20T10:32:35;95381.80;;;24.68;24.64
6096;BME280;25081;42.698;23.298;2023-03-20T10:34:54;95383.69;;;24.57;23.88
6096;BME280;25081;42.698;23.298;2023-03-20T10:37:11;95383.36;;;21.47;27.50
6096;BME280;25081;42.698;23.298;2023-03-20T10:39:21;95383.02;;;19.82;29.76
6096;BME280;25081;42.698;23.298;2023-03-20T10:41:32;95383.02;;;19.77;30.43
6096;BME280;25081;42.698;23.298;2023-03-20T10:43:42;95378.98;;;19.41;30.67
6096;BME280;25081;42.698;23.298;2023-03-20T10:45:52;95378.42;;;19.47;31.40
6096;BME280;25081;42.698;23.298;2023-03-20T10:48:05;95369.97;;;20.05;30.61
6096;BME280;25081;42.698;23.298;2023-03-20T10:50:16;95353.67;;;22.37;26.86
6096;BME280;25081;42.698;23.298;2023-03-20T10:52:28;95356.00;;;23.62;25.63
6096;BME280;25081;42.698;23.298;2023-03-20T10:54:39;95344.94;;;24.30;24.89
6096;BME280;25081;42.698;23.298;2023-03-20T10:56:48;95345.79;;;24.82;23.93
6096;BME280;25081;42.698;23.298;2023-03-20T10:59:00;95342.01;;;23.98;25.00
6096;BME280;25081;42.698;23.298;2023-03-20T11:01:09;95343.82;;;23.57;25.21
6096;BME280;25081;42.698;23.298;2023-03-20T11:03:22;95341.50;;;24.10;24.84
6096;BME280;25081;42.698;23.298;2023-03-20T11:05:33;95336.97;;;24.06;24.42
6096;BME280;25081;42.698;23.298;2023-03-20T11:07:43;95341.27;;;23.79;24.01
6096;BME280;25081;42.698;23.298;2023-03-20T11:12:38;95327.22;;;21.74;26.48
6096;BME280;25081;42.698;23.298;2023-03-20T11:14:48;95331.80;;;21.76;27.11
6096;BME280;25081;42.698;23.298;2023-03-20T11:16:59;95324.16;;;22.07;26.80
6096;BME280;25081;42.698;23.298;2023-03-20T11:19:10;95321.91;;;20.48;27.91
6096;BME280;25081;42.698;23.298;2023-03-20T11:21:22;95324.60;;;19.66;29.18
6096;BME280;25081;42.698;23.298;2023-03-20T11:23:33;95324.41;;;20.24;28.78
6096;BME280;25081;42.698;23.298;2023-03-20T11:25:48;95308.20;;;20.74;28.11
6096;BME280;25081;42.698;23.298;2023-03-20T11:28:13;95305.75;;;20.75;28.47
6096;BME280;25081;42.698;23.298;2023-03-20T11:30:22;95311.08;;;19.48;29.78
6096;BME280;25081;42.698;23.298;2023-03-20T11:32:33;95300.04;;;19.14;30.01
6096;BME280;25081;42.698;23.298;2023-03-20T11:34:44;95294.33;;;19.43;30.42
6096;BME280;25081;42.698;23.298;2023-03-20T11:36:56;95292.64;;;19.78;29.72
6096;BME280;25081;42.698;23.298;2023-03-20T11:39:10;95292.25;;;20.13;29.25
6096;BME280;25081;42.698;23.298;2023-03-20T11:41:23;95284.94;;;20.18;28.99
6096;BME280;25081;42.698;23.298;2023-03-20T11:43:36;95291.92;;;19.24;29.35
6096;BME280;25081;42.698;23.298;2023-03-20T11:45:44;95282.44;;;19.29;29.66
6096;BME280;25081;42.698;23.298;2023-03-20T11:47:54;95272.17;;;19.29;29.31
6096;BME280;25081;42.698;23.298;2023-03-20T11:50:06;95266.73;;;19.52;29.25
6096;BME280;25081;42.698;23.298;2023-03-20T11:52:18;95262.14;;;20.24;28.18
6096;BME280;25081;42.698;23.298;2023-03-20T11:54:27;95255.30;;;20.81;27.26
6096;BME280;25081;42.698;23.298;2023-03-20T11:56:37;95253.69;;;21.14;26.97
6096;BME280;25081;42.698;23.298;2023-03-20T11:58:49;95249.62;;;21.14;26.79
6096;BME280;25081;42.698;23.298;2023-03-20T12:01:00;95244.57;;;20.69;26.91
6096;BME280;25081;42.698;23.298;2023-03-20T12:03:35;95240.58;;;20.58;27.10
6096;BME280;25081;42.698;23.298;2023-03-20T12:05:46;95238.53;;;20.38;27.89
6096;BME280;25081;42.698;23.298;2023-03-20T12:07:57;95238.09;;;20.67;27.08